Time;durP1;ratioP1;P1;durP2;ratioP2;P2;SDS_P1;SDS_P2;PMS_P1;PMS_P2;Temp;Humidity;BMP_temperature;BMP_pressure;BME280_temperature;BME280_humidity;BME280_pressure;Samples;Min_cycle;Max_cycle;Signal;HPM_P1;HPM_P2
2024/01/03 00:00:26;;;;;;;3.80;1.60;;;;;;;3.89;72.75;94563.80;110636;1274;23140;-76
2024/01/03 00:03:16;;;;;;;4.70;1.50;;;;;;;4.00;71.97;94559.34;110608;1274;22287;-77
2024/01/03 00:05:45;;;;;;;5.20;2.60;;;;;;;4.07;72.19;94563.44;110628;1264;22103;-77
2024/01/03 00:08:20;;;;;;;9.60;4.70;;;;;;;4.09;72.18;94560.82;110652;1274;22145;-77
2024/01/03 00:10:53;;;;;;;9.80;5.20;;;;;;;4.06;72.10;94554.94;110595;1274;22305;-77
2024/01/03 00:13:48;;;;;;;8.30;4.40;;;;;;;4.02;72.18;94557.23;110603;1271;22195;-77
2024/01/03 00:16:20;;;;;;;13.50;5.40;;;;;;;3.96;72.25;94559.73;110128;1274;552453;-77
2024/01/03 00:18:58;;;;;;;5.40;2.90;;;;;;;3.95;72.37;94559.56;110647;1274;22959;-77
2024/01/03 00:21:28;;;;;;;3.50;2.10;;;;;;;4.03;72.07;94555.83;110385;1274;22179;-77
2024/01/03 00:24:09;;;;;;;3.50;1.90;;;;;;;4.12;72.17;94545.98;110558;1274;22110;-76
2024/01/03 00:26:40;;;;;;;3.90;1.90;;;;;;;4.24;71.93;94549.34;110595;1274;22117;-77
2024/01/03 00:29:24;;;;;;;3.30;2.20;;;;;;;4.31;71.82;94539.17;110586;1274;22200;-77
2024/01/03 00:31:52;;;;;;;3.10;1.50;;;;;;;4.37;71.75;94539.45;110618;1271;22228;-77
2024/01/03 00:34:26;;;;;;;3.80;1.70;;;;;;;4.39;71.81;94542.55;110532;1274;22367;-77
2024/01/03 00:36:55;;;;;;;3.20;2.10;;;;;;;4.40;71.77;94531.23;110594;1274;22880;-77
2024/01/03 00:39:31;;;;;;;3.90;1.60;;;;;;;4.50;71.12;94528.48;110623;1274;22102;-77
2024/01/03 00:42:00;;;;;;;3.60;2.30;;;;;;;4.63;71.20;94539.81;110568;1275;22975;-77
2024/01/03 00:44:28;;;;;;;2.90;1.90;;;;;;;4.65;71.12;94534.74;110623;1274;22079;-77
2024/01/03 00:46:57;;;;;;;4.10;1.70;;;;;;;4.63;71.08;94523.27;110598;1274;22109;-77
2024/01/03 00:49:25;;;;;;;2.30;1.70;;;;;;;4.65;71.25;94519.25;110588;1274;22133;-76
2024/01/03 00:51:54;;;;;;;3.50;2.10;;;;;;;4.66;71.38;94519.05;110649;1274;22118;-77
2024/01/03 00:54:24;;;;;;;2.10;1.80;;;;;;;4.68;71.35;94512.07;110541;1275;22942;-77
2024/01/03 00:56:53;;;;;;;4.30;1.80;;;;;;;4.70;71.12;94507.86;110543;1274;23009;-77
2024/01/03 00:59:22;;;;;;;4.50;1.90;;;;;;;4.77;71.29;94507.77;110603;1274;22146;-77
2024/01/03 01:01:51;;;;;;;3.40;1.70;;;;;;;4.79;71.26;94506.36;110586;1274;22130;-77
2024/01/03 01:04:20;;;;;;;4.00;1.70;;;;;;;4.78;71.52;94509.65;110562;1274;22178;-77
2024/01/03 01:06:48;;;;;;;5.50;1.70;;;;;;;4.78;71.74;94503.92;110597;1274;22970;-77
2024/01/03 01:09:16;;;;;;;3.20;1.50;;;;;;;4.80;71.94;94511.91;110554;1274;22716;-77
2024/01/03 01:11:44;;;;;;;1.70;1.20;;;;;;;4.90;71.16;94493.64;110603;1274;22924;-76
2024/01/03 01:14:12;;;;;;;4.20;1.70;;;;;;;5.09;70.50;94499.98;110567;1274;22178;-77
2024/01/03 01:16:41;;;;;;;3.50;1.60;;;;;;;5.22;70.35;94493.33;110570;1274;22852;-77
2024/01/03 01:19:09;;;;;;;3.30;1.70;;;;;;;5.29;70.43;94492.17;110601;1274;22131;-77
2024/01/03 01:21:40;;;;;;;3.30;1.70;;;;;;;5.30;70.33;94474.38;110620;1274;22182;-77
2024/01/03 01:24:08;;;;;;;2.80;1.70;;;;;;;5.25;70.30;94478.83;110638;1274;22233;-77
2024/01/03 01:26:36;;;;;;;3.50;1.60;;;;;;;5.16;70.50;94482.96;110592;1274;23085;-77
2024/01/03 01:29:05;;;;;;;4.10;1.70;;;;;;;5.12;70.49;94479.19;110560;1274;22896;-77
2024/01/03 01:31:33;;;;;;;3.40;1.70;;;;;;;5.08;70.70;94489.88;110568;1274;22117;-77
2024/01/03 01:34:01;;;;;;;3.80;2.00;;;;;;;5.09;70.77;94484.83;110624;1274;22136;-76
2024/01/03 01:36:30;;;;;;;2.60;1.40;;;;;;;5.07;70.80;94490.97;110547;1274;22203;-77
2024/01/03 01:38:58;;;;;;;4.80;1.80;;;;;;;5.04;70.82;94486.11;110548;1274;22101;-77
2024/01/03 01:41:26;;;;;;;8.50;3.60;;;;;;;5.01;71.13;94477.97;110636;1274;22955;-77
2024/01/03 01:43:54;;;;;;;4.70;2.40;;;;;;;5.02;71.09;94471.52;110571;1274;22204;-77
2024/01/03 01:46:24;;;;;;;5.30;1.90;;;;;;;5.00;71.16;94467.53;110593;1274;22160;-77
2024/01/03 01:48:53;;;;;;;3.90;1.90;;;;;;;4.97;71.26;94468.78;110586;1274;22285;-77
2024/01/03 01:51:22;;;;;;;3.40;1.60;;;;;;;4.93;71.68;94473.39;110612;1274;22166;-77
2024/01/03 01:53:50;;;;;;;2.90;1.40;;;;;;;4.91;71.83;94469.40;110615;1274;22111;-77
2024/01/03 01:56:20;;;;;;;2.50;1.70;;;;;;;4.91;71.75;94465.76;110621;1274;22966;-77
2024/01/03 01:58:50;;;;;;;3.00;1.60;;;;;;;4.88;71.79;94468.39;110605;1274;22181;-76
2024/01/03 02:01:20;;;;;;;2.60;1.10;;;;;;;4.92;71.76;94466.42;110612;1274;23024;-77
2024/01/03 02:03:51;;;;;;;3.80;1.50;;;;;;;5.02;71.73;94469.59;110596;1274;22177;-77
2024/01/03 02:06:21;;;;;;;2.40;1.10;;;;;;;5.09;71.31;94458.67;110595;1274;22147;-76
2024/01/03 02:08:49;;;;;;;4.30;1.30;;;;;;;5.27;70.66;94457.17;110573;1274;22315;-77
2024/01/03 02:11:17;;;;;;;5.30;1.30;;;;;;;5.43;70.48;94452.90;110590;1274;22155;-77
2024/01/03 02:13:49;;;;;;;3.20;1.40;;;;;;;5.50;70.38;94451.20;110332;1274;23120;-77
2024/01/03 02:16:17;;;;;;;3.90;1.30;;;;;;;5.61;69.79;94448.05;110623;1274;22113;-77
2024/01/03 02:18:47;;;;;;;6.10;1.40;;;;;;;5.75;69.53;94435.58;110605;1274;22118;-76
2024/01/03 02:21:16;;;;;;;1.80;1.10;;;;;;;5.87;69.14;94433.60;110556;1274;22830;-77
2024/01/03 02:23:45;;;;;;;2.50;1.30;;;;;;;5.96;68.86;94421.59;110590;1274;22133;-77
2024/01/03 02:26:13;;;;;;;4.30;1.50;;;;;;;6.00;68.28;94414.02;110628;1274;22146;-76
2024/01/03 02:28:56;;;;;;;2.60;1.40;;;;;;;5.99;68.75;94418.76;110568;1274;22156;-77
2024/01/03 02:31:25;;;;;;;3.30;1.10;;;;;;;5.98;68.28;94423.48;110625;1274;22362;-77
2024/01/03 02:33:53;;;;;;;1.30;0.80;;;;;;;6.07;68.14;94418.23;110613;1271;22130;-77
2024/01/03 02:36:22;;;;;;;2.80;1.10;;;;;;;6.12;68.43;94422.85;110580;1274;22873;-77
2024/01/03 02:38:52;;;;;;;4.10;1.00;;;;;;;6.13;68.34;94421.42;110542;1274;22115;-77
2024/01/03 02:41:21;;;;;;;2.10;1.40;;;;;;;6.11;68.87;94425.48;110568;1274;22145;-77
2024/01/03 02:43:49;;;;;;;3.30;1.00;;;;;;;6.04;69.29;94427.54;110516;1274;22359;-77
2024/01/03 02:46:19;;;;;;;3.50;1.20;;;;;;;5.97;69.72;94423.16;110587;1274;22909;-77
2024/01/03 02:48:47;;;;;;;2.60;1.30;;;;;;;5.89;70.46;94412.45;110342;1274;22954;-77
2024/01/03 02:51:20;;;;;;;2.90;1.50;;;;;;;5.85;70.29;94417.59;110535;1274;22165;-77
2024/01/03 02:53:49;;;;;;;4.80;1.40;;;;;;;5.82;70.16;94419.91;110591;1274;22105;-77
2024/01/03 02:56:17;;;;;;;4.00;2.00;;;;;;;5.83;70.22;94424.95;110551;1274;22113;-77
2024/01/03 02:58:46;;;;;;;4.60;1.20;;;;;;;5.76;71.47;94418.46;110585;1274;22986;-77
2024/01/03 03:01:14;;;;;;;1.80;1.10;;;;;;;5.82;71.06;94415.18;110583;1274;22294;-77
2024/01/03 03:03:43;;;;;;;4.70;1.50;;;;;;;5.90;70.28;94404.06;110570;1274;22110;-77
2024/01/03 03:06:11;;;;;;;2.00;1.20;;;;;;;5.98;70.36;94388.73;110533;1274;22399;-77
2024/01/03 03:08:39;;;;;;;4.90;1.30;;;;;;;6.01;70.58;94391.64;110573;1274;22707;-76
2024/01/03 03:11:07;;;;;;;1.70;1.00;;;;;;;6.06;70.79;94388.05;110527;1274;22163;-77
2024/01/03 03:13:36;;;;;;;4.40;1.30;;;;;;;6.09;70.86;94389.03;110567;1274;22265;-77
2024/01/03 03:16:07;;;;;;;2.90;1.20;;;;;;;6.12;70.87;94385.14;110615;1274;22114;-77
2024/01/03 03:18:35;;;;;;;3.80;1.30;;;;;;;6.09;71.28;94385.02;110603;1274;22329;-78
2024/01/03 03:21:04;;;;;;;2.90;1.00;;;;;;;6.07;71.24;94380.86;110620;1275;23014;-77
2024/01/03 03:23:32;;;;;;;3.60;1.30;;;;;;;6.08;71.28;94378.07;110524;1270;22122;-77
2024/01/03 03:26:01;;;;;;;3.40;1.40;;;;;;;6.05;71.35;94373.59;110538;1274;22132;-77
2024/01/03 03:28:30;;;;;;;3.30;1.30;;;;;;;6.04;71.85;94366.45;110575;1274;22157;-76
2024/01/03 03:30:58;;;;;;;2.10;0.90;;;;;;;6.00;72.10;94367.22;110647;1274;22101;-77
2024/01/03 03:33:27;;;;;;;2.60;1.20;;;;;;;5.97;72.25;94363.09;110516;1274;23030;-77
2024/01/03 03:35:55;;;;;;;2.80;1.30;;;;;;;5.94;72.34;94366.81;110590;1274;22142;-77
2024/01/03 03:38:23;;;;;;;4.00;0.90;;;;;;;5.90;72.51;94372.47;110629;1274;22273;-77
2024/01/03 03:40:52;;;;;;;1.80;1.10;;;;;;;5.86;73.10;94378.30;110608;1274;22784;-77
2024/01/03 03:43:20;;;;;;;2.20;1.00;;;;;;;5.82;73.47;94365.30;110538;1274;22131;-76
2024/01/03 03:45:48;;;;;;;3.10;1.00;;;;;;;5.82;73.66;94373.66;110640;1274;22261;-77
2024/01/03 03:48:16;;;;;;;2.80;1.20;;;;;;;5.82;73.82;94372.42;110579;1274;22133;-77
2024/01/03 03:50:45;;;;;;;1.70;1.20;;;;;;;5.82;73.88;94365.80;110604;1274;22145;-77
2024/01/03 03:53:13;;;;;;;2.20;0.90;;;;;;;5.81;73.89;94377.16;110547;1274;22924;-77
2024/01/03 03:55:42;;;;;;;1.40;1.00;;;;;;;5.78;74.50;94375.14;110493;1274;23038;-77
2024/01/03 03:58:11;;;;;;;3.40;1.20;;;;;;;5.68;74.54;94370.64;110618;1274;22963;-76
2024/01/03 04:00:39;;;;;;;2.10;1.00;;;;;;;5.63;74.59;94360.42;110614;1274;22445;-77
2024/01/03 04:03:08;;;;;;;3.20;1.50;;;;;;;5.61;74.57;94360.13;110508;1274;23118;-77
2024/01/03 04:05:37;;;;;;;2.60;1.40;;;;;;;5.57;74.61;94347.11;110594;1264;23124;-77
2024/01/03 04:08:06;;;;;;;2.20;1.20;;;;;;;5.48;75.16;94344.15;110592;1274;22118;-77
2024/01/03 04:10:35;;;;;;;3.20;1.30;;;;;;;5.43;74.92;94335.17;110528;1274;22242;-76
2024/01/03 04:13:03;;;;;;;2.50;1.40;;;;;;;5.36;75.06;94334.95;110515;1274;22139;-77
2024/01/03 04:15:32;;;;;;;3.60;1.30;;;;;;;5.26;75.07;94343.16;110528;1274;22159;-77
2024/01/03 04:18:02;;;;;;;2.30;1.20;;;;;;;5.14;75.23;94341.46;110651;1274;22322;-77
2024/01/03 04:20:31;;;;;;;1.60;1.10;;;;;;;5.03;76.27;94332.60;110352;1274;22144;-76
2024/01/03 04:22:59;;;;;;;1.70;0.90;;;;;;;5.00;76.94;94341.16;110526;1274;22450;-76
2024/01/03 04:25:27;;;;;;;3.00;1.30;;;;;;;5.02;76.86;94338.71;110626;1274;22728;-76
2024/01/03 04:27:55;;;;;;;1.70;0.90;;;;;;;5.01;76.83;94337.16;110463;1274;22134;-77
2024/01/03 04:30:24;;;;;;;1.00;0.70;;;;;;;5.02;76.59;94337.48;110512;1274;22214;-76
2024/01/03 04:32:52;;;;;;;0.80;0.60;;;;;;;5.03;77.22;94346.54;110563;1274;22299;-77
2024/01/03 04:35:20;;;;;;;1.00;0.70;;;;;;;5.06;76.89;94330.62;110528;1274;22250;-77
2024/01/03 04:37:49;;;;;;;12.10;5.60;;;;;;;5.07;76.90;94328.67;110568;1274;22150;-76
2024/01/03 04:40:17;;;;;;;7.90;4.70;;;;;;;5.09;76.84;94318.36;110524;1274;22128;-77
2024/01/03 04:42:45;;;;;;;2.60;1.70;;;;;;;5.08;77.22;94316.30;110497;1274;22131;-77
2024/01/03 04:45:13;;;;;;;1.60;1.10;;;;;;;5.06;77.13;94317.20;110484;1274;22093;-76
2024/01/03 04:47:41;;;;;;;2.30;1.30;;;;;;;5.04;77.26;94321.77;110458;1274;22111;-76
2024/01/03 04:50:10;;;;;;;1.30;0.80;;;;;;;5.05;77.69;94329.77;110567;1275;22128;-77
2024/01/03 04:52:38;;;;;;;1.70;0.70;;;;;;;5.12;77.55;94328.41;110558;1274;22082;-77
2024/01/03 04:55:07;;;;;;;1.80;0.90;;;;;;;5.17;77.35;94326.59;110579;1274;22962;-77
2024/01/03 04:57:35;;;;;;;2.00;1.00;;;;;;;5.16;77.79;94318.23;110475;1274;22965;-77
2024/01/03 05:00:06;;;;;;;2.00;0.90;;;;;;;5.11;78.37;94315.89;110646;1274;22569;-77
2024/01/03 05:02:36;;;;;;;1.90;0.60;;;;;;;5.10;78.23;94321.65;110514;1274;22784;-77
2024/01/03 05:05:05;;;;;;;2.50;0.50;;;;;;;5.26;77.78;94311.95;110628;1274;22234;-77
2024/01/03 05:07:34;;;;;;;1.10;0.80;;;;;;;5.40;77.46;94307.85;110510;1274;22199;-78
2024/01/03 05:10:03;;;;;;;0.70;0.70;;;;;;;5.52;77.15;94311.11;110488;1274;22100;-77
2024/01/03 05:12:31;;;;;;;1.30;0.60;;;;;;;5.58;77.05;94307.68;110508;1274;22105;-77
2024/01/03 05:14:59;;;;;;;0.60;0.60;;;;;;;5.68;76.70;94316.38;110598;1274;22104;-78
2024/01/03 05:17:28;;;;;;;1.10;0.70;;;;;;;5.69;76.61;94314.25;110504;1274;22259;-77
2024/01/03 05:19:57;;;;;;;0.50;0.30;;;;;;;5.72;76.59;94319.27;110494;1274;22821;-77
2024/01/03 05:22:25;;;;;;;2.00;0.80;;;;;;;5.74;76.77;94329.88;110519;1274;22171;-77
2024/01/03 05:24:54;;;;;;;2.40;1.00;;;;;;;5.76;76.79;94322.99;110503;1274;22903;-77
2024/01/03 05:28:44;;;;;;;1.30;0.70;;;;;;;5.83;76.62;94333.17;104759;1296;545837;-77
2024/01/03 05:31:12;;;;;;;1.30;0.70;;;;;;;5.80;77.24;94325.38;105953;1288;24264;-77
2024/01/03 05:33:40;;;;;;;2.10;1.00;;;;;;;5.79;77.24;94318.23;106098;1288;22530;-77
2024/01/03 05:36:09;;;;;;;0.70;0.60;;;;;;;5.76;77.28;94323.53;106304;1288;23897;-77
2024/01/03 05:38:37;;;;;;;0.60;0.40;;;;;;;5.74;77.20;94331.95;106221;1288;22549;-77
2024/01/03 05:41:06;;;;;;;0.40;0.40;;;;;;;5.70;77.86;94328.71;106224;1288;25443;-76
2024/01/03 05:43:36;;;;;;;1.10;0.40;;;;;;;5.66;77.71;94333.86;105863;1285;24407;-77
2024/01/03 05:46:05;;;;;;;1.00;0.60;;;;;;;5.63;77.82;94328.66;106288;1285;22738;-77
2024/01/03 05:48:33;;;;;;;0.40;0.30;;;;;;;5.62;77.61;94328.02;105943;1285;23284;-77
2024/01/03 05:51:03;;;;;;;1.30;0.50;;;;;;;5.61;77.89;94329.23;105990;1285;22810;-76
2024/01/03 05:53:31;;;;;;;0.80;0.60;;;;;;;5.58;78.16;94332.63;105992;1285;22532;-77
2024/01/03 05:55:59;;;;;;;0.50;0.30;;;;;;;5.55;78.17;94334.95;105988;1285;23907;-77
2024/01/03 05:58:27;;;;;;;0.80;0.50;;;;;;;5.53;78.87;94326.61;106340;1278;22728;-77
2024/01/03 06:00:55;;;;;;;0.80;0.30;;;;;;;5.48;79.07;94328.45;106799;1279;22522;-77
2024/01/03 06:03:24;;;;;;;0.60;0.40;;;;;;;5.47;79.32;94329.86;106770;1276;22661;-77
2024/01/03 06:05:53;;;;;;;1.50;0.80;;;;;;;5.44;79.76;94326.95;107150;1274;22525;-76
2024/01/03 06:08:21;;;;;;;0.90;0.80;;;;;;;5.38;79.60;94332.81;106900;1274;24232;-77
2024/01/03 06:10:49;;;;;;;0.40;0.40;;;;;;;5.37;79.85;94338.26;106758;1274;22769;-77
2024/01/03 06:13:18;;;;;;;1.00;0.50;;;;;;;5.37;80.09;94336.17;106805;1274;22658;-77
2024/01/03 06:15:46;;;;;;;1.10;0.80;;;;;;;5.30;80.28;94335.59;106738;1274;25242;-77
2024/01/03 06:18:15;;;;;;;28.20;13.50;;;;;;;5.24;80.80;94334.84;106736;1274;22557;-77
2024/01/03 06:20:44;;;;;;;1.60;0.70;;;;;;;5.19;81.01;94336.47;106933;1274;24394;-77
2024/01/03 06:23:12;;;;;;;1.10;0.90;;;;;;;5.18;81.02;94344.70;106881;1274;22643;-76
2024/01/03 06:25:40;;;;;;;0.60;0.40;;;;;;;5.17;81.49;94348.91;106818;1274;24282;-77
2024/01/03 06:28:08;;;;;;;0.90;0.50;;;;;;;5.18;81.56;94344.70;106804;1274;24708;-76
2024/01/03 06:30:37;;;;;;;0.40;0.30;;;;;;;5.21;81.04;94355.29;106824;1274;22639;-77
2024/01/03 06:33:06;;;;;;;15.00;9.70;;;;;;;5.24;81.01;94352.27;106852;1274;22544;-77
2024/01/03 06:35:34;;;;;;;0.60;0.60;;;;;;;5.27;80.91;94350.30;107165;1274;25323;-77
2024/01/03 06:38:03;;;;;;;1.10;0.80;;;;;;;5.26;81.97;94345.60;107035;1274;22520;-77
2024/01/03 06:40:32;;;;;;;0.50;0.30;;;;;;;5.26;81.72;94340.21;106886;1274;25234;-78
2024/01/03 06:43:00;;;;;;;1.10;0.50;;;;;;;5.29;81.51;94334.05;107073;1274;24225;-77
2024/01/03 06:45:28;;;;;;;0.70;0.40;;;;;;;5.31;81.12;94337.15;107093;1274;25494;-78
2024/01/03 06:47:56;;;;;;;3.20;1.40;;;;;;;5.34;81.45;94345.64;106765;1274;22611;-78
2024/01/03 06:50:25;;;;;;;1.00;0.50;;;;;;;5.36;81.33;94346.11;106716;1272;25501;-77
2024/01/03 06:52:53;;;;;;;0.60;0.40;;;;;;;5.39;81.08;94351.63;106686;1274;25300;-78
2024/01/03 06:55:21;;;;;;;1.40;0.60;;;;;;;5.43;80.87;94357.65;106683;1274;22539;-77
2024/01/03 06:57:50;;;;;;;1.40;0.50;;;;;;;5.43;80.93;94349.82;106832;1274;22528;-77
2024/01/03 07:00:19;;;;;;;1.20;0.60;;;;;;;5.43;81.33;94349.83;106670;1274;22528;-77
2024/01/03 07:02:47;;;;;;;1.10;0.40;;;;;;;5.41;81.54;94356.14;106778;1274;22658;-77
2024/01/03 07:05:15;;;;;;;2.80;1.50;;;;;;;5.41;81.35;94347.06;106736;1274;22517;-78
2024/01/03 07:07:44;;;;;;;4.20;2.80;;;;;;;5.41;81.08;94359.77;106673;1274;24359;-78
2024/01/03 07:10:12;;;;;;;2.70;1.20;;;;;;;5.39;81.87;94359.84;106679;1274;22643;-78
2024/01/03 07:12:40;;;;;;;15.70;12.10;;;;;;;5.35;81.52;94365.32;106748;1274;22542;-78
2024/01/03 07:15:10;;;;;;;3.00;2.20;;;;;;;5.32;81.84;94369.55;107039;1274;22517;-78
2024/01/03 07:17:38;;;;;;;1.10;1.00;;;;;;;5.32;82.31;94368.16;107043;1274;22608;-78
2024/01/03 07:20:07;;;;;;;1.80;0.90;;;;;;;5.33;81.79;94371.11;107098;1274;22517;-77
2024/01/03 07:22:35;;;;;;;6.70;4.70;;;;;;;5.34;81.78;94376.15;107083;1274;25255;-78
2024/01/03 07:25:04;;;;;;;6.30;2.90;;;;;;;5.36;81.85;94370.35;107096;1274;24375;-78
2024/01/03 07:27:32;;;;;;;2.20;1.30;;;;;;;5.42;81.76;94377.73;107093;1274;22536;-79
2024/01/03 07:30:00;;;;;;;3.40;1.60;;;;;;;5.44;81.86;94376.83;107109;1274;22512;-78
2024/01/03 07:32:29;;;;;;;1.50;0.80;;;;;;;5.44;82.43;94368.45;107097;1274;25411;-78
2024/01/03 07:34:57;;;;;;;4.10;2.40;;;;;;;5.48;81.94;94367.34;107054;1274;24234;-78
2024/01/03 07:37:25;;;;;;;33.90;16.40;;;;;;;5.50;81.99;94361.71;107032;1274;22780;-78
2024/01/03 07:39:53;;;;;;;4.20;2.30;;;;;;;5.50;82.04;94365.72;107106;1274;22529;-78
2024/01/03 07:42:22;;;;;;;1.30;1.00;;;;;;;5.52;82.26;94364.99;106883;1274;25239;-78
2024/01/03 07:44:50;;;;;;;2.70;2.50;;;;;;;5.55;82.17;94366.86;107095;1274;22657;-77
2024/01/03 07:47:18;;;;;;;9.40;4.30;;;;;;;5.58;81.88;94357.55;107038;1274;22506;-77
2024/01/03 07:49:47;;;;;;;5.80;3.60;;;;;;;5.59;81.76;94359.98;107034;1274;22790;-79
2024/01/03 07:52:16;;;;;;;2.60;1.50;;;;;;;5.58;82.12;94366.96;106892;1274;24421;-79
2024/01/03 07:54:44;;;;;;;4.20;2.60;;;;;;;5.60;82.83;94363.29;106701;1274;25415;-78
2024/01/03 07:57:12;;;;;;;7.20;4.20;;;;;;;5.57;82.93;94364.58;106742;1274;22518;-78
2024/01/03 07:59:44;;;;;;;2.40;1.40;;;;;;;5.55;82.55;94370.87;106859;1274;22578;-79
2024/01/03 08:02:13;;;;;;;0.80;0.60;;;;;;;5.54;81.96;94373.14;106814;1274;22537;-79
2024/01/03 08:04:42;;;;;;;2.10;0.90;;;;;;;5.54;81.70;94366.86;106798;1274;24284;-80
2024/01/03 08:07:10;;;;;;;0.60;0.40;;;;;;;5.55;81.61;94364.25;106897;1274;25256;-80
2024/01/03 08:09:38;;;;;;;0.30;0.30;;;;;;;5.55;81.38;94362.31;106718;1274;22512;-80
2024/01/03 08:12:10;;;;;;;4.00;2.60;;;;;;;5.53;81.78;94371.44;106724;1274;22514;-80
2024/01/03 08:14:38;;;;;;;4.30;3.10;;;;;;;5.50;81.87;94369.39;106820;1274;22517;-79
2024/01/03 08:17:07;;;;;;;1.80;1.40;;;;;;;5.49;82.05;94341.17;106670;1274;25350;-80
2024/01/03 08:19:35;;;;;;;4.20;2.90;;;;;;;5.52;82.02;94336.75;106736;1274;25246;-78
2024/01/03 08:22:04;;;;;;;0.90;0.70;;;;;;;5.56;83.16;94350.44;106862;1274;24290;-80
2024/01/03 08:24:32;;;;;;;3.60;0.30;;;;;;;5.58;83.48;94351.97;106800;1274;25422;-78
2024/01/03 08:27:01;;;;;;;0.20;0.20;;;;;;;5.66;82.72;94371.72;106796;1274;25504;-78
2024/01/03 08:29:30;;;;;;;0.30;0.20;;;;;;;5.74;82.81;94381.85;106802;1274;22517;-80
2024/01/03 08:31:58;;;;;;;0.40;0.20;;;;;;;5.82;83.11;94372.27;106798;1274;22630;-78
2024/01/03 08:34:27;;;;;;;4.00;3.60;;;;;;;5.90;82.81;94362.17;106703;1274;23312;-78
2024/01/03 08:36:55;;;;;;;5.60;4.70;;;;;;;6.02;82.51;94355.84;106816;1274;25376;-78
2024/01/03 08:39:24;;;;;;;4.10;3.40;;;;;;;6.17;82.67;94358.85;106735;1274;25333;-80
2024/01/03 08:41:53;;;;;;;1.30;1.20;;;;;;;6.31;82.50;94355.39;106705;1274;25418;-80
2024/01/03 08:44:22;;;;;;;0.90;0.90;;;;;;;6.43;81.53;94350.59;106668;1274;22543;-78
2024/01/03 08:46:50;;;;;;;0.50;0.50;;;;;;;6.46;80.63;94348.06;106708;1274;22646;-79
2024/01/03 08:49:19;;;;;;;1.20;0.90;;;;;;;6.48;79.11;94341.57;106789;1274;22510;-79
2024/01/03 08:51:48;;;;;;;0.40;0.40;;;;;;;6.51;79.81;94348.48;106799;1274;22514;-80
2024/01/03 08:54:16;;;;;;;0.20;0.20;;;;;;;6.55;80.20;94344.91;106871;1274;25422;-79
2024/01/03 08:56:49;;;;;;;0.10;0.10;;;;;;;6.54;79.29;94349.99;106839;1274;25293;-77
2024/01/03 08:59:17;;;;;;;0.30;0.30;;;;;;;6.52;80.13;94349.34;106859;1272;22625;-79
2024/01/03 09:01:49;;;;;;;0.30;0.20;;;;;;;6.51;79.96;94347.42;106804;1274;22573;-80
2024/01/03 09:04:18;;;;;;;2.60;2.10;;;;;;;6.49;79.95;94337.34;106800;1274;22531;-76
2024/01/03 09:06:47;;;;;;;0.80;0.40;;;;;;;6.46;80.04;94341.42;106749;1274;22521;-77
2024/01/03 09:09:16;;;;;;;0.50;0.50;;;;;;;6.43;79.54;94337.48;106748;1274;22654;-78
2024/01/03 09:11:44;;;;;;;0.20;0.20;;;;;;;6.41;79.35;94331.22;107053;1274;24250;-78
2024/01/03 09:14:13;;;;;;;0.10;0.10;;;;;;;6.41;79.80;94327.39;107061;1274;24234;-78
2024/01/03 09:16:41;;;;;;;0.40;0.40;;;;;;;6.43;79.88;94321.76;106784;1274;24338;-77
2024/01/03 09:19:10;;;;;;;1.20;0.60;;;;;;;6.47;80.19;94319.73;106777;1274;22647;-79
2024/01/03 09:21:45;;;;;;;0.90;0.40;;;;;;;6.51;80.46;94326.12;106866;1274;24243;-77
2024/01/03 09:24:14;;;;;;;12.50;6.20;;;;;;;6.48;80.53;94327.23;106848;1274;22527;-77
2024/01/03 09:26:42;;;;;;;44.80;27.00;;;;;;;6.46;80.01;94321.69;106707;1274;24412;-77
2024/01/03 09:29:11;;;;;;;7.40;3.90;;;;;;;6.48;79.60;94311.17;106849;1274;22516;-78
2024/01/03 09:31:43;;;;;;;27.70;14.90;;;;;;;6.50;79.51;94307.45;106767;1274;25376;-80
2024/01/03 09:34:11;;;;;;;7.00;4.60;;;;;;;6.55;79.64;94307.70;106729;1274;22527;-78
2024/01/03 09:36:40;;;;;;;0.20;0.20;;;;;;;6.59;79.33;94315.48;106702;1274;24271;-79
2024/01/03 09:39:08;;;;;;;1.00;0.80;;;;;;;6.68;79.82;94311.02;106812;1274;25290;-79
2024/01/03 09:41:38;;;;;;;1.00;0.70;;;;;;;6.88;79.81;94304.10;106777;1274;23928;-80
2024/01/03 09:44:08;;;;;;;1.10;0.60;;;;;;;7.01;79.00;94314.25;106695;1274;23165;-81
2024/01/03 09:46:37;;;;;;;0.40;0.40;;;;;;;7.06;78.61;94302.95;107110;1274;25460;-82
2024/01/03 09:49:05;;;;;;;8.20;7.00;;;;;;;7.04;78.21;94297.02;107063;1274;22639;-80
2024/01/03 09:51:34;;;;;;;4.80;2.90;;;;;;;7.07;78.05;94300.98;107075;1274;22523;-78
2024/01/03 09:54:07;;;;;;;2.10;1.40;;;;;;;7.10;77.49;94295.30;107022;1274;25500;-81
2024/01/03 09:56:38;;;;;;;;;;;;;;;7.12;77.11;94308.55;106777;1274;22494;-79
2024/01/03 09:59:08;;;;;;;0.30;0.20;;;;;;;7.18;78.00;94301.92;107126;1274;24060;-79
2024/01/03 10:01:37;;;;;;;1.30;1.20;;;;;;;7.28;78.06;94292.19;107004;1274;22632;-82
2024/01/03 10:04:06;;;;;;;0.30;0.30;;;;;;;7.34;77.77;94279.64;106821;1274;22518;-79
2024/01/03 10:06:52;;;;;;;0.60;0.60;;;;;;;7.36;77.25;94281.34;106934;1274;24369;-79
2024/01/03 10:09:21;;;;;;;0.30;0.30;;;;;;;7.35;76.88;94286.42;106733;1274;25255;-81
2024/01/03 10:11:53;;;;;;;0.70;0.30;;;;;;;7.38;76.59;94294.05;106801;1274;23949;-80
2024/01/03 10:14:22;;;;;;;0.30;0.20;;;;;;;7.38;76.41;94293.00;106871;1260;24431;-79
2024/01/03 10:16:51;;;;;;;0.40;0.40;;;;;;;7.37;76.34;94298.27;106821;1274;25372;-81
2024/01/03 10:19:20;;;;;;;1.90;0.30;;;;;;;7.37;76.81;94297.05;106700;1274;22639;-79
2024/01/03 10:21:51;;;;;;;1.20;0.30;;;;;;;7.35;76.82;94303.75;106764;1274;23848;-80
2024/01/03 10:24:27;;;;;;;0.40;0.30;;;;;;;7.36;77.13;94301.43;106738;1274;24339;-81
2024/01/03 10:27:08;;;;;;;1.20;1.00;;;;;;;7.50;78.45;94293.17;106898;1274;22639;-80
2024/01/03 10:29:37;;;;;;;0.40;0.40;;;;;;;7.64;78.28;94292.27;106882;1274;25319;-77
2024/01/03 10:32:09;;;;;;;0.80;0.40;;;;;;;7.63;77.95;94291.60;106853;1274;25297;-80
2024/01/03 10:34:38;;;;;;;0.40;0.40;;;;;;;7.53;78.40;94290.83;106857;1274;25528;-80
2024/01/03 10:37:07;;;;;;;6.20;3.70;;;;;;;7.52;78.45;94290.52;106778;1273;22517;-78
2024/01/03 10:39:37;;;;;;;7.00;1.60;;;;;;;7.50;78.65;94286.36;106801;1274;24326;-81
2024/01/03 10:42:08;;;;;;;4.20;2.00;;;;;;;7.57;78.65;94281.29;106818;1274;22521;-79
2024/01/03 10:44:37;;;;;;;12.30;5.90;;;;;;;7.67;78.24;94289.20;106783;1274;25394;-79
2024/01/03 10:47:06;;;;;;;0.50;0.50;;;;;;;7.72;78.57;94285.23;106807;1274;24170;-80
2024/01/03 10:49:34;;;;;;;1.60;0.60;;;;;;;7.87;79.57;94287.58;106822;1274;24281;-81
2024/01/03 10:52:06;;;;;;;1.00;0.60;;;;;;;8.00;79.78;94291.92;106839;1274;22695;-81
2024/01/03 10:54:42;;;;;;;4.40;2.90;;;;;;;8.05;80.02;94279.37;106893;1274;25300;-80
2024/01/03 10:57:12;;;;;;;11.50;5.90;;;;;;;7.99;78.11;94288.29;106755;1274;22575;-79
2024/01/03 10:59:52;;;;;;;3.00;1.40;;;;;;;7.88;78.26;94284.95;106691;1274;25520;-81
2024/01/03 11:02:30;;;;;;;1.00;0.80;;;;;;;7.80;78.59;94289.55;106820;1274;24365;-79
2024/01/03 11:05:17;;;;;;;1.50;0.80;;;;;;;7.76;79.07;94282.48;106829;1274;24346;-78
2024/01/03 11:07:50;;;;;;;3.50;2.10;;;;;;;7.94;78.73;94272.35;106786;1274;22521;-79
2024/01/03 11:10:54;;;;;;;3.40;1.40;;;;;;;7.86;78.43;94278.86;106806;1274;26523;-80
2024/01/03 11:13:25;;;;;;;;;;;;;;;7.79;78.91;94288.85;106793;1274;24268;-79
2024/01/03 11:15:54;;;;;;;2.50;0.90;;;;;;;7.69;79.33;94289.17;106799;1274;22694;-78
2024/01/03 11:18:41;;;;;;;1.30;1.00;;;;;;;7.63;80.16;94281.29;106766;1274;22671;-80
2024/01/03 11:21:30;;;;;;;2.00;1.40;;;;;;;7.58;80.48;94277.91;106844;1274;22536;-80
2024/01/03 11:23:59;;;;;;;2.40;1.00;;;;;;;7.57;80.77;94274.98;106753;1264;22626;-79
2024/01/03 11:26:54;;;;;;;1.30;0.90;;;;;;;7.66;80.78;94270.00;106788;1274;25347;-79
2024/01/03 11:29:35;;;;;;;2.40;1.30;;;;;;;7.68;80.23;94269.05;106845;1274;23365;-78
2024/01/03 11:32:07;;;;;;;0.90;0.80;;;;;;;7.71;79.76;94261.95;106763;1274;25277;-80
2024/01/03 11:34:48;;;;;;;1.40;1.00;;;;;;;7.78;79.72;94251.60;106835;1274;24373;-79
2024/01/03 11:37:16;;;;;;;1.50;0.80;;;;;;;7.81;79.17;94262.89;106888;1274;22531;-80
2024/01/03 11:39:47;;;;;;;3.20;2.10;;;;;;;7.78;79.37;94263.86;106807;1274;22523;-80
2024/01/03 11:42:28;;;;;;;8.90;4.50;;;;;;;7.78;79.30;94270.35;106835;1274;24390;-80
2024/01/03 11:45:09;;;;;;;2.80;1.00;;;;;;;7.74;78.99;94272.20;106855;1274;22528;-79
2024/01/03 11:47:40;;;;;;;14.20;6.60;;;;;;;7.65;79.37;94279.45;106809;1274;22527;-79